WLW1005 VNPL-VNLK
Flight info
| Callsign | WLW1005 |
|---|---|
| Flight time | 0h 5m |
| Altitude | 10000 |
| Route | VFR |
| Aircraft | C208/L-SDGRWY/1200 |
Departure
| Time | 2025-12-27 21:31 |
|---|---|
| Airport | Phaplu Airport (VNPL) |
Arrival
| Time | 2025-12-27 21:36 |
|---|---|
| Airport | Tenzing-Hillary Airport (VNLK) |
| Time | Latitude | Longitude | Altitude | Speed | Heading |
|---|---|---|---|---|---|
| 2025-12-27 21:17 | 27.51700 | 86.58418 | 8114 ft | 0 kts | 279° |
| 2025-12-27 21:25 | 27.51729 | 86.58395 | 8110 ft | 15 kts | 3° |
| 2025-12-27 21:26 | 27.51862 | 86.58577 | 8098 ft | 18 kts | 24° |
| 2025-12-27 21:26 | 27.52021 | 86.58653 | 8083 ft | 0 kts | 20° |
| 2025-12-27 21:27 | 27.52046 | 86.58662 | 8079 ft | 5 kts | 12° |
| 2025-12-27 21:27 | 27.52067 | 86.58638 | 8077 ft | 5 kts | 221° |
| 2025-12-27 21:28 | 27.51702 | 86.58456 | 8112 ft | 0 kts | 201° |
| 2025-12-27 21:29 | 27.51525 | 86.58398 | 8128 ft | 20 kts | 25° |
| 2025-12-27 21:30 | 27.52445 | 86.58826 | 8382 ft | 84 kts | 5° |
| 2025-12-27 21:30 | 27.53645 | 86.58768 | 9195 ft | 96 kts | 350° |
| 2025-12-27 21:30 | 27.54373 | 86.58659 | 9541 ft | 114 kts | 358° |
| 2025-12-27 21:31 | 27.55987 | 86.59625 | 10152 ft | 143 kts | 25° |
| 2025-12-27 21:31 | 27.57603 | 86.60784 | 11060 ft | 137 kts | 44° |
| 2025-12-27 21:32 | 27.58240 | 86.62985 | 11315 ft | 165 kts | 90° |
| 2025-12-27 21:32 | 27.58295 | 86.65644 | 11495 ft | 175 kts | 69° |
| 2025-12-27 21:33 | 27.61214 | 86.68196 | 11101 ft | 171 kts | 20° |
| 2025-12-27 21:34 | 27.63395 | 86.69167 | 10896 ft | 171 kts | 14° |
| 2025-12-27 21:34 | 27.65476 | 86.70064 | 10429 ft | 151 kts | 20° |
| 2025-12-27 21:34 | 27.66445 | 86.70539 | 10062 ft | 151 kts | 20° |
| 2025-12-27 21:35 | 27.68061 | 86.71767 | 9190 ft | 136 kts | 51° |
| 2025-12-27 21:35 | 27.68734 | 86.73048 | 9392 ft | 46 kts | 61° |
| 2025-12-27 21:36 | 27.68761 | 86.73173 | 9434 ft | 3 kts | 165° |
| 2025-12-27 21:36 | 27.68744 | 86.73202 | 9436 ft | 0 kts | 47° |
| 2025-12-27 21:39 | 27.68761 | 86.73205 | 9434 ft | 5 kts | 352° |
| 2025-12-27 21:39 | 27.68774 | 86.73173 | 9437 ft | 26 kts | 277° |
| 2025-12-27 21:40 | 27.68143 | 86.72168 | 9319 ft | 127 kts | 214° |
| 2025-12-27 21:40 | 27.66216 | 86.71350 | 9385 ft | 161 kts | 233° |
| 2025-12-27 21:41 | 27.63536 | 86.68932 | 9278 ft | 183 kts | 177° |
| 2025-12-27 21:42 | 27.62072 | 86.70547 | 9723 ft | 171 kts | 89° |